createdAt,value
2018-05-13T00:01:16.029Z,18.60
2018-05-13T00:03:43.575Z,18.70
2018-05-13T00:06:11.877Z,18.70
2018-05-13T00:08:39.416Z,18.60
2018-05-13T00:11:06.958Z,18.60
2018-05-13T00:13:34.469Z,18.60
2018-05-13T00:16:02.044Z,18.60
2018-05-13T00:18:29.545Z,18.50
2018-05-13T00:20:58.137Z,18.50
2018-05-13T00:23:25.683Z,18.40
2018-05-13T00:25:53.968Z,18.40
2018-05-13T00:28:22.238Z,18.40
2018-05-13T00:30:50.494Z,18.30
2018-05-13T00:33:18.762Z,18.30
2018-05-13T00:35:46.317Z,18.20
2018-05-13T00:38:13.793Z,18.20
2018-05-13T00:40:41.571Z,18.10
2018-05-13T00:43:09.940Z,18.00
2018-05-13T00:45:38.205Z,18.00
2018-05-13T00:48:05.712Z,18.00
2018-05-13T00:50:33.249Z,18.00
2018-05-13T00:53:00.692Z,18.00
2018-05-13T00:55:28.965Z,17.90
2018-05-13T00:57:57.241Z,17.80
2018-05-13T01:00:25.536Z,17.80
2018-05-13T01:02:53.126Z,17.80
2018-05-13T01:05:21.324Z,17.90
2018-05-13T01:07:48.832Z,17.80
2018-05-13T01:10:16.376Z,17.70
2018-05-13T01:12:44.720Z,17.50
2018-05-13T01:15:12.311Z,17.50
2018-05-13T01:17:40.724Z,17.30
2018-05-13T01:20:08.220Z,17.30
2018-05-13T01:22:35.800Z,17.10
2018-05-13T01:25:04.114Z,17.10
2018-05-13T01:27:31.628Z,17.10
2018-05-13T01:30:00.022Z,16.90
2018-05-13T01:32:27.540Z,16.90
2018-05-13T01:34:55.037Z,16.90
2018-05-13T01:37:23.297Z,16.90
2018-05-13T01:39:51.593Z,16.90
2018-05-13T01:42:19.146Z,16.90
2018-05-13T01:44:47.419Z,16.80
2018-05-13T01:47:15.805Z,16.70
2018-05-13T01:49:43.336Z,16.80
2018-05-13T01:52:11.610Z,16.80
2018-05-13T01:54:39.486Z,16.80
2018-05-13T01:57:07.737Z,16.80
2018-05-13T01:59:36.216Z,16.80
2018-05-13T02:02:03.813Z,16.90
2018-05-13T02:04:32.069Z,16.80
2018-05-13T02:07:00.345Z,16.90
2018-05-13T02:09:27.922Z,16.80
2018-05-13T02:11:56.178Z,16.90
2018-05-13T02:14:23.672Z,16.80
2018-05-13T02:16:51.466Z,16.90
2018-05-13T02:19:19.171Z,17.00
2018-05-13T02:21:47.426Z,17.30
2018-05-13T02:24:14.936Z,17.30
2018-05-13T02:26:42.466Z,17.40
2018-05-13T02:29:10.722Z,17.60
2018-05-13T02:31:38.228Z,17.60
2018-05-13T02:34:05.729Z,17.70
2018-05-13T02:36:33.229Z,17.80
2018-05-13T02:39:06.115Z,17.80
2018-05-13T02:41:34.500Z,17.80
2018-05-13T02:44:02.026Z,17.80
2018-05-13T02:46:29.547Z,17.60
2018-05-13T02:48:57.056Z,17.50
2018-05-13T02:51:25.342Z,17.50
2018-05-13T02:53:54.519Z,17.50
2018-05-13T02:56:21.997Z,17.50
2018-05-13T02:58:49.527Z,17.50
2018-05-13T03:01:17.029Z,17.50
2018-05-13T03:03:44.559Z,17.60
2018-05-13T03:06:13.145Z,17.60
2018-05-13T03:08:41.415Z,17.60
2018-05-13T03:11:09.846Z,17.60
2018-05-13T03:13:37.353Z,17.60
2018-05-13T03:16:05.605Z,17.60
2018-05-13T03:18:33.090Z,17.60
2018-05-13T03:21:01.479Z,17.60
2018-05-13T03:23:28.992Z,17.60
2018-05-13T03:25:56.496Z,17.60
2018-05-13T03:28:24.034Z,17.60
2018-05-13T03:30:52.301Z,17.60
2018-05-13T03:33:20.569Z,17.50
2018-05-13T03:35:48.169Z,17.50
2018-05-13T03:38:15.771Z,17.60
2018-05-13T03:40:44.071Z,17.60
2018-05-13T03:43:12.336Z,17.60
2018-05-13T03:45:39.857Z,17.60
2018-05-13T03:48:07.357Z,17.60
2018-05-13T03:50:34.899Z,17.70
2018-05-13T03:53:02.434Z,17.60
2018-05-13T03:55:30.006Z,17.60
2018-05-13T03:57:57.520Z,17.50
2018-05-13T04:00:25.899Z,17.50
2018-05-13T04:02:54.180Z,17.50
2018-05-13T04:05:21.835Z,17.50
2018-05-13T04:11:14.854Z,17.50
2018-05-13T04:13:54.247Z,17.40
2018-05-13T04:16:21.813Z,17.40
2018-05-13T04:18:49.316Z,17.50
2018-05-13T04:21:16.822Z,17.40
2018-05-13T04:23:45.150Z,17.40
2018-05-13T04:26:12.658Z,17.40
2018-05-13T04:28:41.095Z,17.40
2018-05-13T04:31:08.650Z,17.40
2018-05-13T04:33:36.164Z,17.60
2018-05-13T04:36:03.674Z,17.50
2018-05-13T04:38:31.322Z,17.60
2018-05-13T04:40:58.836Z,17.60
2018-05-13T04:43:26.393Z,17.60
2018-05-13T04:45:54.696Z,17.60
2018-05-13T04:48:22.230Z,17.60
2018-05-13T04:50:49.737Z,17.60
2018-05-13T04:53:17.268Z,17.60
2018-05-13T04:55:45.827Z,17.60
2018-05-13T04:58:14.122Z,17.70
2018-05-13T05:00:41.660Z,17.70
2018-05-13T05:03:09.218Z,17.80
2018-05-13T05:05:37.646Z,17.90
2018-05-13T05:08:05.178Z,17.90
2018-05-13T05:10:32.716Z,17.70
2018-05-13T05:13:00.992Z,17.80
2018-05-13T05:15:28.524Z,17.70
2018-05-13T05:17:56.780Z,17.60
2018-05-13T05:20:24.292Z,17.60
2018-05-13T05:22:51.931Z,17.50
2018-05-13T05:25:20.319Z,17.60
2018-05-13T05:27:48.594Z,17.60
2018-05-13T05:30:16.890Z,17.60
2018-05-13T05:32:44.436Z,17.50
2018-05-13T05:35:11.997Z,17.50
2018-05-13T05:37:40.464Z,17.40
2018-05-13T05:40:08.767Z,17.40
2018-05-13T05:42:36.861Z,17.40
2018-05-13T05:45:04.403Z,17.50
2018-05-13T05:47:31.939Z,17.40
2018-05-13T05:50:02.753Z,17.50
2018-05-13T05:52:31.222Z,17.50
2018-05-13T05:54:58.717Z,17.50
2018-05-13T05:57:26.227Z,17.70
2018-05-13T06:00:04.413Z,17.70
2018-05-13T06:02:32.005Z,18.00
2018-05-13T06:04:59.529Z,18.40
2018-05-13T06:07:27.153Z,18.70
2018-05-13T06:09:54.695Z,19.10
2018-05-13T06:12:22.976Z,19.70
2018-05-13T06:14:51.396Z,20.10
2018-05-13T06:17:19.864Z,20.10
2018-05-13T06:19:47.479Z,20.60
2018-05-13T06:22:15.085Z,21.00
2018-05-13T06:24:42.620Z,21.10
2018-05-13T06:27:10.946Z,20.80
2018-05-13T06:29:38.477Z,20.80
2018-05-13T06:32:06.103Z,20.70
2018-05-13T06:34:33.643Z,20.50
2018-05-13T06:37:01.585Z,20.30
2018-05-13T06:39:29.359Z,20.30
2018-05-13T06:41:56.843Z,20.30
2018-05-13T06:44:24.389Z,20.30
2018-05-13T06:46:52.041Z,20.30
2018-05-13T06:49:19.644Z,20.50
2018-05-13T06:51:47.981Z,21.00
2018-05-13T06:54:15.459Z,21.00
2018-05-13T06:56:43.222Z,21.40
2018-05-13T06:59:11.124Z,21.40
2018-05-13T07:01:38.789Z,21.40
2018-05-13T07:04:06.437Z,21.40
2018-05-13T07:06:35.624Z,21.10
2018-05-13T07:11:53.467Z,20.70
2018-05-13T07:14:21.049Z,20.70
2018-05-13T07:16:49.323Z,20.40
2018-05-13T07:19:17.746Z,20.30
2018-05-13T07:21:45.348Z,20.20
2018-05-13T07:24:12.934Z,20.10
2018-05-13T07:26:40.552Z,20.10
2018-05-13T07:29:08.068Z,20.00
2018-05-13T07:31:35.816Z,19.80
2018-05-13T07:34:03.337Z,19.70
2018-05-13T07:36:30.861Z,19.50
2018-05-13T07:38:58.462Z,19.40
2018-05-13T07:41:26.760Z,19.10
2018-05-13T07:43:55.029Z,19.00
2018-05-13T07:46:23.649Z,18.90
2018-05-13T07:48:51.144Z,18.90
2018-05-13T07:51:18.689Z,18.80
2018-05-13T07:53:46.230Z,18.80
2018-05-13T07:56:13.747Z,18.80
2018-05-13T07:58:42.024Z,18.70
2018-05-13T08:01:10.293Z,18.60
2018-05-13T08:03:38.550Z,18.70
2018-05-13T08:06:06.127Z,18.60
2018-05-13T08:08:33.649Z,18.60
2018-05-13T08:11:01.198Z,18.60
2018-05-13T08:13:28.710Z,18.60
2018-05-13T08:15:56.865Z,18.50
2018-05-13T08:18:25.133Z,18.40
2018-05-13T08:20:52.702Z,18.40
2018-05-13T08:23:20.977Z,18.30
2018-05-13T08:25:49.331Z,18.50
2018-05-13T08:28:16.873Z,18.50
2018-05-13T08:30:45.203Z,18.70
2018-05-13T08:33:12.705Z,19.00
2018-05-13T08:35:40.313Z,19.20
2018-05-13T08:38:08.585Z,19.40
2018-05-13T08:40:36.853Z,19.40
2018-05-13T08:43:05.187Z,19.40
2018-05-13T08:45:32.707Z,19.40
2018-05-13T08:48:00.950Z,19.40
2018-05-13T08:50:28.745Z,19.40
2018-05-13T08:52:57.017Z,19.20
2018-05-13T08:55:25.289Z,19.00
2018-05-13T08:57:54.761Z,18.90
2018-05-13T09:00:22.291Z,18.90
2018-05-13T09:02:49.822Z,18.90
2018-05-13T09:05:18.404Z,18.80
2018-05-13T09:07:46.063Z,18.80
2018-05-13T09:10:13.582Z,18.90
2018-05-13T09:12:42.078Z,18.90
2018-05-13T09:15:10.360Z,18.70
2018-05-13T09:17:38.621Z,18.70
2018-05-13T09:20:06.926Z,18.60
2018-05-13T09:22:35.226Z,18.40
2018-05-13T09:25:02.714Z,18.40
2018-05-13T09:27:31.025Z,18.20
2018-05-13T09:29:59.433Z,18.10
2018-05-13T09:32:26.933Z,18.10
2018-05-13T09:34:54.519Z,18.20
2018-05-13T09:37:22.782Z,18.40
2018-05-13T09:39:51.057Z,18.50
2018-05-13T09:42:19.353Z,18.50
2018-05-13T09:44:47.632Z,18.60
2018-05-13T09:47:15.256Z,18.60
2018-05-13T09:49:42.779Z,18.60
2018-05-13T09:52:10.268Z,18.60
2018-05-13T09:54:37.810Z,18.30
2018-05-13T09:57:05.437Z,18.40
2018-05-13T09:59:33.700Z,18.30
2018-05-13T10:02:02.024Z,18.40
2018-05-13T10:04:32.014Z,18.40
2018-05-13T10:06:59.535Z,18.30
2018-05-13T10:09:28.945Z,18.30
2018-05-13T10:11:56.728Z,18.30
2018-05-13T10:14:24.505Z,18.40
2018-05-13T10:16:52.049Z,18.50
2018-05-13T10:19:19.593Z,18.60
2018-05-13T10:21:47.887Z,18.50
2018-05-13T10:24:15.386Z,18.50
2018-05-13T10:26:43.329Z,18.60
2018-05-13T10:29:10.865Z,18.60
2018-05-13T10:31:38.428Z,18.60
2018-05-13T10:34:05.957Z,18.60
2018-05-13T10:36:33.545Z,18.60
2018-05-13T10:39:01.058Z,18.60
2018-05-13T10:41:28.949Z,18.60
2018-05-13T10:43:57.204Z,18.20
2018-05-13T10:46:25.516Z,18.10
2018-05-13T10:48:53.826Z,18.00
2018-05-13T10:51:21.476Z,18.00
2018-05-13T10:53:49.382Z,18.00
2018-05-13T10:56:16.902Z,17.90
2018-05-13T10:58:44.422Z,17.70
2018-05-13T11:01:12.766Z,17.80
2018-05-13T11:03:40.330Z,17.80
2018-05-13T11:06:07.939Z,17.80
2018-05-13T11:08:35.451Z,17.80
2018-05-13T11:11:02.977Z,17.90
2018-05-13T11:13:30.503Z,17.80
2018-05-13T11:15:58.791Z,17.80
2018-05-13T11:18:26.328Z,17.80
2018-05-13T11:20:55.001Z,17.70
2018-05-13T11:23:24.023Z,17.90
2018-05-13T11:25:52.776Z,17.90
2018-05-13T11:28:20.349Z,17.90
2018-05-13T11:30:47.933Z,18.10
2018-05-13T11:33:15.463Z,18.10
2018-05-13T11:35:43.742Z,18.00
2018-05-13T11:38:12.037Z,17.90
2018-05-13T11:40:40.358Z,18.00
2018-05-13T11:43:07.869Z,18.00
2018-05-13T11:45:36.157Z,18.20
2018-05-13T11:48:04.545Z,18.20
2018-05-13T11:50:32.795Z,18.10
2018-05-13T11:53:00.329Z,18.10
2018-05-13T11:55:28.643Z,17.70
2018-05-13T11:57:56.157Z,17.70
2018-05-13T12:00:23.881Z,17.50
2018-05-13T12:02:51.500Z,17.50
2018-05-13T12:05:19.781Z,17.30
2018-05-13T12:07:48.089Z,17.20
2018-05-13T12:10:15.616Z,17.20
2018-05-13T12:12:43.923Z,17.20
2018-05-13T12:15:22.100Z,17.20
2018-05-13T12:17:50.381Z,17.10
2018-05-13T12:20:18.777Z,16.90
2018-05-13T12:22:47.037Z,16.90
2018-05-13T12:25:15.341Z,17.00
2018-05-13T12:27:42.843Z,17.00
2018-05-13T12:30:10.446Z,17.00
2018-05-13T12:32:38.020Z,17.00
2018-05-13T12:35:05.514Z,16.90
2018-05-13T12:37:33.024Z,16.90
2018-05-13T12:40:00.528Z,16.90
2018-05-13T12:42:28.037Z,16.90
2018-05-13T12:44:55.517Z,16.90
2018-05-13T12:47:23.038Z,16.90
2018-05-13T12:49:51.303Z,17.00
2018-05-13T12:52:19.591Z,17.00
2018-05-13T12:54:47.106Z,17.00
2018-05-13T12:57:14.633Z,16.90
2018-05-13T12:59:42.151Z,16.90
2018-05-13T13:02:10.445Z,16.80
2018-05-13T13:04:37.993Z,16.80
2018-05-13T13:07:06.697Z,16.80
2018-05-13T13:09:34.343Z,16.80
2018-05-13T13:12:01.765Z,16.90
2018-05-13T13:14:29.365Z,16.80
2018-05-13T13:16:56.915Z,16.90
2018-05-13T13:19:25.467Z,17.00
2018-05-13T13:21:54.701Z,17.00
2018-05-13T13:24:22.205Z,17.00
2018-05-13T13:26:49.789Z,17.10
2018-05-13T13:29:18.094Z,17.20
2018-05-13T13:31:45.599Z,17.20
2018-05-13T13:34:13.114Z,17.30
2018-05-13T13:36:40.667Z,17.40
2018-05-13T13:39:08.970Z,17.40
2018-05-13T13:41:36.527Z,17.40
2018-05-13T13:44:04.055Z,17.40
2018-05-13T13:46:32.762Z,17.30
2018-05-13T13:49:00.302Z,17.30
2018-05-13T13:51:29.839Z,17.20
2018-05-13T13:53:57.366Z,17.20
2018-05-13T13:56:26.674Z,17.10
2018-05-13T13:58:54.536Z,17.10
2018-05-13T14:01:22.218Z,17.00
2018-05-13T14:03:50.262Z,17.00
2018-05-13T14:06:18.775Z,16.90
2018-05-13T14:08:46.231Z,16.90
2018-05-13T14:11:14.179Z,16.70
2018-05-13T14:13:41.680Z,16.70
2018-05-13T14:16:09.417Z,16.80
2018-05-13T14:18:37.652Z,16.80
2018-05-13T14:21:05.963Z,16.70
2018-05-13T14:23:38.382Z,16.70
2018-05-13T14:26:06.264Z,16.70
2018-05-13T14:28:34.450Z,16.70
2018-05-13T14:31:02.891Z,16.70
2018-05-13T14:33:30.430Z,16.70
2018-05-13T14:35:58.249Z,16.60
2018-05-13T14:38:26.622Z,16.90
2018-05-13T14:40:55.039Z,17.10
2018-05-13T14:43:23.573Z,17.10
2018-05-13T14:45:51.842Z,17.50
2018-05-13T14:48:19.370Z,17.50
2018-05-13T14:50:46.919Z,17.70
2018-05-13T14:53:14.412Z,17.80
2018-05-13T14:55:42.011Z,17.70
2018-05-13T14:58:09.602Z,17.90
2018-05-13T15:00:37.255Z,18.00
2018-05-13T15:03:05.224Z,18.00
2018-05-13T15:05:33.685Z,18.00
2018-05-13T15:08:02.004Z,18.00
2018-05-13T15:10:29.642Z,18.00
2018-05-13T15:12:57.332Z,17.70
2018-05-13T15:15:25.016Z,17.40
2018-05-13T15:17:52.735Z,17.30
2018-05-13T15:20:20.294Z,17.20
2018-05-13T15:22:47.780Z,17.10
2018-05-13T15:25:15.334Z,17.10
2018-05-13T15:27:42.934Z,17.10
2018-05-13T15:30:11.314Z,17.00
2018-05-13T15:32:38.916Z,17.00
2018-05-13T15:35:07.153Z,17.00
2018-05-13T15:37:34.665Z,16.90
2018-05-13T15:40:02.224Z,16.90
2018-05-13T15:42:29.875Z,16.70
2018-05-13T15:44:58.702Z,16.60
2018-05-13T15:47:26.258Z,16.60
2018-05-13T15:49:54.536Z,16.60
2018-05-13T15:52:22.913Z,16.60
2018-05-13T15:54:51.253Z,16.60
2018-05-13T15:57:19.711Z,16.70
2018-05-13T15:59:47.225Z,16.70
2018-05-13T16:02:15.493Z,16.70
2018-05-13T16:04:43.797Z,16.70
2018-05-13T16:07:12.671Z,16.90
2018-05-13T16:09:40.928Z,16.90
2018-05-13T16:12:08.474Z,17.00
2018-05-13T16:14:35.965Z,17.00
2018-05-13T16:17:04.250Z,16.90
2018-05-13T16:19:32.944Z,16.90
2018-05-13T16:22:00.504Z,16.90
2018-05-13T16:24:28.031Z,16.80
2018-05-13T16:26:55.552Z,16.80
2018-05-13T16:29:23.147Z,16.60
2018-05-13T16:31:50.687Z,16.60
2018-05-13T16:34:18.201Z,16.50
2018-05-13T16:36:45.717Z,16.60
2018-05-13T16:39:13.232Z,16.40
2018-05-13T16:41:40.876Z,16.50
2018-05-13T16:44:08.822Z,16.60
2018-05-13T16:46:37.184Z,17.00
2018-05-13T16:49:04.813Z,16.90
2018-05-13T16:51:33.143Z,17.10
2018-05-13T16:54:02.112Z,17.40
2018-05-13T16:56:30.501Z,17.60
2018-05-13T16:58:59.867Z,17.70
2018-05-13T17:01:27.360Z,17.60
2018-05-13T17:03:55.880Z,17.80
2018-05-13T17:06:23.393Z,17.80
2018-05-13T17:08:50.994Z,17.80
2018-05-13T17:11:18.639Z,17.70
2018-05-13T17:13:46.191Z,17.60
2018-05-13T17:16:14.442Z,17.60
2018-05-13T17:18:42.067Z,17.50
2018-05-13T17:21:09.693Z,17.40
2018-05-13T17:23:38.135Z,17.30
2018-05-13T17:26:05.595Z,17.30
2018-05-13T17:28:33.116Z,17.40
2018-05-13T17:31:00.722Z,17.50
2018-05-13T17:33:28.247Z,17.40
2018-05-13T17:35:55.732Z,17.50
2018-05-13T17:38:24.987Z,17.60
2018-05-13T17:40:54.023Z,17.60
2018-05-13T17:43:22.569Z,17.60
2018-05-13T17:45:50.183Z,17.60
2018-05-13T17:48:18.346Z,17.80
2018-05-13T17:50:46.670Z,17.50
2018-05-13T17:53:14.426Z,17.40
2018-05-13T17:55:42.028Z,17.40
2018-05-13T17:58:11.091Z,17.50
2018-05-13T18:00:38.686Z,17.40
2018-05-13T18:03:08.606Z,17.30
2018-05-13T18:05:38.252Z,17.10
2018-05-13T18:08:06.595Z,17.10
2018-05-13T18:10:35.848Z,16.80
2018-05-13T18:13:13.294Z,16.80
2018-05-13T18:15:41.586Z,16.60
2018-05-13T18:18:11.816Z,16.60
2018-05-13T18:20:40.108Z,16.50
2018-05-13T18:23:08.282Z,16.50
2018-05-13T18:25:35.819Z,16.60
2018-05-13T18:28:03.316Z,16.50
2018-05-13T18:30:30.812Z,16.40
2018-05-13T18:33:00.863Z,16.70
2018-05-13T18:35:28.569Z,16.70
2018-05-13T18:37:56.205Z,16.40
2018-05-13T18:40:23.805Z,16.20
2018-05-13T18:42:52.373Z,16.40
2018-05-13T18:45:19.896Z,16.60
2018-05-13T18:47:47.393Z,16.90
2018-05-13T18:50:14.934Z,17.00
2018-05-13T18:52:42.438Z,17.00
2018-05-13T18:55:11.930Z,16.90
2018-05-13T18:57:39.511Z,16.90
2018-05-13T19:00:07.066Z,16.90
2018-05-13T19:02:36.054Z,17.10
2018-05-13T19:05:04.323Z,17.20
2018-05-13T19:07:32.611Z,17.30
2018-05-13T19:10:00.250Z,17.30
2018-05-13T19:12:27.838Z,17.40
2018-05-13T19:14:55.292Z,17.40
2018-05-13T19:17:32.766Z,17.50
2018-05-13T19:20:01.166Z,17.40
2018-05-13T19:22:29.497Z,17.50
2018-05-13T19:24:57.444Z,17.50
2018-05-13T19:27:25.106Z,17.40
2018-05-13T19:30:03.794Z,17.30
2018-05-13T19:32:32.107Z,17.30
2018-05-13T19:35:00.290Z,17.30
2018-05-13T19:37:29.622Z,17.20
2018-05-13T19:39:57.929Z,17.30
2018-05-13T19:42:25.562Z,17.30
2018-05-13T19:44:53.865Z,17.40
2018-05-13T19:47:21.385Z,17.30
2018-05-13T19:49:48.953Z,17.20
2018-05-13T19:52:17.232Z,16.90
2018-05-13T19:54:45.604Z,16.70
2018-05-13T19:57:13.938Z,16.50
2018-05-13T19:59:41.440Z,16.50
2018-05-13T20:02:09.807Z,16.10
2018-05-13T20:04:37.336Z,16.10
2018-05-13T20:07:04.862Z,15.90
2018-05-13T20:09:33.201Z,15.90
2018-05-13T20:12:02.278Z,15.90
2018-05-13T20:14:31.482Z,15.90
2018-05-13T20:16:59.055Z,15.90
2018-05-13T20:19:26.602Z,15.90
2018-05-13T20:21:54.249Z,16.00
2018-05-13T20:24:21.837Z,15.90
2018-05-13T20:26:49.417Z,15.90
2018-05-13T20:29:17.760Z,16.00
2018-05-13T20:31:45.304Z,15.90
2018-05-13T20:34:13.131Z,15.90
2018-05-13T20:36:40.748Z,15.80
2018-05-13T20:39:08.251Z,15.80
2018-05-13T20:41:35.869Z,15.80
2018-05-13T20:44:03.769Z,15.80
2018-05-13T20:46:31.316Z,15.70
2018-05-13T20:48:59.611Z,15.70
2018-05-13T20:51:28.140Z,15.70
2018-05-13T20:53:55.639Z,15.70
2018-05-13T20:56:23.957Z,15.70
2018-05-13T20:58:51.525Z,15.60
2018-05-13T21:01:28.176Z,15.70
2018-05-13T21:03:55.657Z,15.70
2018-05-13T21:06:23.225Z,15.70
2018-05-13T21:08:50.768Z,15.70
2018-05-13T21:11:18.296Z,15.70
2018-05-13T21:13:46.233Z,15.70
2018-05-13T21:16:15.586Z,15.80
2018-05-13T21:18:43.080Z,15.80
2018-05-13T21:21:10.671Z,15.70
2018-05-13T21:23:38.360Z,15.70
2018-05-13T21:26:05.853Z,15.70
2018-05-13T21:28:33.386Z,15.60
2018-05-13T21:31:01.403Z,15.60
2018-05-13T21:33:29.692Z,15.60
2018-05-13T21:35:58.064Z,15.60
2018-05-13T21:38:25.714Z,15.60
2018-05-13T21:40:54.202Z,15.60
2018-05-13T21:43:22.580Z,15.40
2018-05-13T21:45:50.924Z,15.40
2018-05-13T21:48:19.121Z,15.40
2018-05-13T21:50:46.725Z,15.40
2018-05-13T21:53:15.312Z,15.40
2018-05-13T21:55:43.073Z,15.40
2018-05-13T21:58:10.642Z,15.40
2018-05-13T22:00:38.224Z,15.40
2018-05-13T22:03:05.810Z,15.50
2018-05-13T22:05:33.378Z,15.40
2018-05-13T22:08:01.743Z,15.50
2018-05-13T22:10:29.281Z,15.40
2018-05-13T22:12:57.217Z,15.40
2018-05-13T22:15:24.705Z,15.30
2018-05-13T22:17:52.220Z,15.20
2018-05-13T22:20:19.709Z,15.30
2018-05-13T22:22:47.287Z,15.30
2018-05-13T22:25:14.826Z,15.20
2018-05-13T22:27:43.102Z,15.20
2018-05-13T22:30:10.649Z,15.20
2018-05-13T22:32:38.137Z,15.20
2018-05-13T22:35:05.742Z,15.20
2018-05-13T22:37:33.259Z,15.20
2018-05-13T22:40:00.824Z,15.20
2018-05-13T22:42:28.408Z,15.20
2018-05-13T22:44:56.740Z,15.20
2018-05-13T22:47:25.018Z,15.20
2018-05-13T22:49:53.308Z,15.00
2018-05-13T22:52:20.939Z,15.00
2018-05-13T22:54:49.176Z,15.20
2018-05-13T22:57:17.464Z,15.20
2018-05-13T22:59:44.981Z,15.10
2018-05-13T23:02:12.776Z,15.10
2018-05-13T23:04:41.156Z,15.00
2018-05-13T23:07:09.439Z,15.00
2018-05-13T23:09:36.961Z,15.00
2018-05-13T23:12:04.549Z,15.00
2018-05-13T23:14:32.856Z,15.10
2018-05-13T23:17:00.390Z,15.10
2018-05-13T23:19:28.775Z,15.10
2018-05-13T23:21:57.049Z,15.10
2018-05-13T23:24:25.334Z,15.10
2018-05-13T23:26:52.856Z,15.10
2018-05-13T23:29:21.139Z,15.00
2018-05-13T23:31:48.637Z,15.00
2018-05-13T23:34:16.295Z,15.00
2018-05-13T23:36:43.829Z,15.00
2018-05-13T23:39:11.349Z,15.00
2018-05-13T23:41:39.033Z,14.80
2018-05-13T23:44:07.241Z,14.80
2018-05-13T23:46:34.785Z,14.80
2018-05-13T23:49:03.064Z,14.80
2018-05-13T23:51:30.633Z,14.80
2018-05-13T23:53:58.091Z,14.90
2018-05-13T23:56:25.589Z,14.90
2018-05-13T23:58:53.116Z,14.90
